EJA180 KBOS-KTEB
Flight info
| Callsign | EJA180 |
|---|---|
| Flight time | N/A |
| Altitude | 16000 |
| Route | BLZZR6 BLZZR BAF MOBBS SAGES V489 COATE |
| Aircraft | C750/M-SBDE3FGHRWXY/S |
Departure
| Time | 2026-05-06 16:03 |
|---|---|
| Airport | Boston Logan International Airport (KBOS) |
Arrival
| Time | N/A |
|---|---|
| Airport | Teterboro Airport (KTEB) |
| Time | Latitude | Longitude | Altitude | Speed | Heading |
|---|---|---|---|---|---|
| 2026-05-06 15:53 | 42.37435 | -71.02226 | 22 ft | 0 kts | 315° |
| 2026-05-06 15:57 | 42.37438 | -71.02231 | 22 ft | 3 kts | 316° |
| 2026-05-06 15:57 | 42.37455 | -71.02236 | 23 ft | 1 kts | 23° |
| 2026-05-06 15:57 | 42.37459 | -71.02225 | 23 ft | 4 kts | 73° |
| 2026-05-06 15:58 | 42.37451 | -71.02178 | 22 ft | 4 kts | 74° |
| 2026-05-06 15:58 | 42.37485 | -71.02132 | 23 ft | 10 kts | 43° |
| 2026-05-06 15:58 | 42.37470 | -71.02056 | 22 ft | 11 kts | 136° |
| 2026-05-06 15:58 | 42.37415 | -71.01984 | 25 ft | 9 kts | 136° |
| 2026-05-06 15:59 | 42.37363 | -71.01914 | 22 ft | 11 kts | 135° |
| 2026-05-06 15:59 | 42.37311 | -71.01845 | 24 ft | 10 kts | 135° |
| 2026-05-06 15:59 | 42.37256 | -71.01770 | 22 ft | 14 kts | 135° |
| 2026-05-06 15:59 | 42.37168 | -71.01653 | 22 ft | 21 kts | 135° |
| 2026-05-06 16:00 | 42.37053 | -71.01499 | 22 ft | 26 kts | 135° |
| 2026-05-06 16:00 | 42.36928 | -71.01333 | 23 ft | 15 kts | 137° |
| 2026-05-06 16:00 | 42.36894 | -71.01216 | 22 ft | 16 kts | 51° |
| 2026-05-06 16:00 | 42.36994 | -71.01106 | 22 ft | 21 kts | 27° |
| 2026-05-06 16:01 | 42.37088 | -71.01046 | 22 ft | 24 kts | 25° |
| 2026-05-06 16:01 | 42.37258 | -71.00934 | 22 ft | 29 kts | 26° |
| 2026-05-06 16:01 | 42.37457 | -71.00832 | 22 ft | 30 kts | 19° |
| 2026-05-06 16:01 | 42.37651 | -71.00738 | 22 ft | 29 kts | 20° |
| 2026-05-06 16:02 | 42.37810 | -71.00661 | 22 ft | 13 kts | 21° |
| 2026-05-06 16:02 | 42.37834 | -71.00577 | 22 ft | 10 kts | 108° |
| 2026-05-06 16:02 | 42.37811 | -71.00494 | 23 ft | 8 kts | 110° |
| 2026-05-06 16:02 | 42.37784 | -71.00477 | 22 ft | 4 kts | 200° |
| 2026-05-06 16:03 | 42.37755 | -71.00491 | 22 ft | 10 kts | 200° |
| 2026-05-06 16:03 | 42.37370 | -71.00678 | 25 ft | 109 kts | 198° |
| 2026-05-06 16:03 | 42.36523 | -71.01095 | 316 ft | 133 kts | 199° |
| 2026-05-06 16:03 | 42.35672 | -71.01508 | 967 ft | 129 kts | 196° |
| 2026-05-06 16:04 | 42.34727 | -71.01553 | 1356 ft | 145 kts | 176° |
| 2026-05-06 16:04 | 42.33736 | -71.01047 | 1790 ft | 169 kts | 157° |
| 2026-05-06 16:04 | 42.32796 | -70.99768 | 2249 ft | 213 kts | 137° |
| 2026-05-06 16:04 | 42.31846 | -70.98028 | 2804 ft | 247 kts | 135° |
| 2026-05-06 16:05 | 42.31265 | -70.95592 | 3241 ft | 302 kts | 101° |
| 2026-05-06 16:05 | 42.31514 | -70.92667 | 4089 ft | 320 kts | 85° |
| 2026-05-06 16:05 | 42.32000 | -70.89718 | 5227 ft | 321 kts | 83° |
| 2026-05-06 16:05 | 42.32453 | -70.86803 | 6509 ft | 310 kts | 86° |
| 2026-05-06 16:06 | 42.32827 | -70.83971 | 7642 ft | 313 kts | 88° |
| 2026-05-06 16:06 | 42.33074 | -70.81041 | 8613 ft | 311 kts | 101° |
| 2026-05-06 16:06 | 42.32580 | -70.78294 | 9570 ft | 295 kts | 125° |
| 2026-05-06 16:06 | 42.31640 | -70.75900 | 10556 ft | 284 kts | 133° |
| 2026-05-06 16:07 | 42.30381 | -70.73897 | 11131 ft | 280 kts | 151° |
| 2026-05-06 16:07 | 42.28712 | -70.72532 | 11614 ft | 282 kts | 166° |
| 2026-05-06 16:07 | 42.26806 | -70.71912 | 12122 ft | 284 kts | 182° |
| 2026-05-06 16:07 | 42.24828 | -70.72091 | 12625 ft | 290 kts | 195° |
| 2026-05-06 16:08 | 42.22867 | -70.72880 | 13018 ft | 300 kts | 206° |
| 2026-05-06 16:08 | 42.21042 | -70.74323 | 13430 ft | 311 kts | 218° |
| 2026-05-06 16:08 | 42.19472 | -70.76391 | 13943 ft | 319 kts | 230° |
| 2026-05-06 16:08 | 42.18299 | -70.78954 | 14552 ft | 326 kts | 242° |
| 2026-05-06 16:09 | 42.17621 | -70.81904 | 15164 ft | 334 kts | 254° |
| 2026-05-06 16:09 | 42.17211 | -70.85001 | 15817 ft | 337 kts | 256° |
| 2026-05-06 16:09 | 42.16778 | -70.88177 | 16034 ft | 354 kts | 255° |
| 2026-05-06 16:09 | 42.16320 | -70.91534 | 16020 ft | 374 kts | 257° |
| 2026-05-06 16:10 | 42.16130 | -70.95128 | 16008 ft | 395 kts | 265° |
| 2026-05-06 16:10 | 42.16315 | -70.98894 | 16005 ft | 406 kts | 271° |
| 2026-05-06 16:10 | 42.16619 | -71.02680 | 16003 ft | 406 kts | 270° |
| 2026-05-06 16:10 | 42.16887 | -71.06457 | 16004 ft | 404 kts | 270° |
| 2026-05-06 16:11 | 42.17143 | -71.10210 | 16005 ft | 401 kts | 270° |
| 2026-05-06 16:11 | 42.17417 | -71.13944 | 16009 ft | 399 kts | 270° |
| 2026-05-06 16:11 | 42.17695 | -71.17661 | 15999 ft | 397 kts | 270° |
| 2026-05-06 16:11 | 42.17958 | -71.21343 | 15996 ft | 394 kts | 270° |
| 2026-05-06 16:12 | 42.18216 | -71.25024 | 15989 ft | 393 kts | 270° |
| 2026-05-06 16:12 | 42.18476 | -71.28679 | 15992 ft | 392 kts | 270° |
| 2026-05-06 16:12 | 42.18736 | -71.32327 | 15993 ft | 391 kts | 270° |
| 2026-05-06 16:12 | 42.18993 | -71.35994 | 15979 ft | 393 kts | 270° |
| 2026-05-06 16:13 | 42.19249 | -71.39675 | 15980 ft | 394 kts | 270° |
| 2026-05-06 16:13 | 42.19507 | -71.43354 | 15981 ft | 394 kts | 270° |
| 2026-05-06 16:13 | 42.19764 | -71.47029 | 15981 ft | 393 kts | 270° |
| 2026-05-06 16:13 | 42.20017 | -71.50698 | 15984 ft | 393 kts | 270° |
| 2026-05-06 16:14 | 42.20269 | -71.54365 | 15985 ft | 392 kts | 270° |
| 2026-05-06 16:14 | 42.20520 | -71.58028 | 15986 ft | 393 kts | 270° |
| 2026-05-06 16:14 | 42.20770 | -71.61690 | 15987 ft | 392 kts | 270° |
| 2026-05-06 16:14 | 42.21015 | -71.65301 | 15986 ft | 392 kts | 270° |
| 2026-05-06 16:15 | 42.21261 | -71.68957 | 15985 ft | 391 kts | 270° |
| 2026-05-06 16:15 | 42.21507 | -71.72612 | 15984 ft | 391 kts | 270° |
| 2026-05-06 16:15 | 42.21676 | -71.76253 | 15972 ft | 387 kts | 265° |
| 2026-05-06 16:15 | 42.21524 | -71.79857 | 15969 ft | 384 kts | 261° |
| 2026-05-06 16:16 | 42.21316 | -71.83454 | 15972 ft | 385 kts | 261° |
| 2026-05-06 16:16 | 42.21134 | -71.87053 | 15974 ft | 385 kts | 261° |
| 2026-05-06 16:16 | 42.20946 | -71.90658 | 15976 ft | 385 kts | 261° |
| 2026-05-06 16:16 | 42.20741 | -71.94254 | 15982 ft | 385 kts | 261° |
| 2026-05-06 16:17 | 42.20537 | -71.97849 | 15981 ft | 385 kts | 261° |
| 2026-05-06 16:17 | 42.20338 | -72.01453 | 15980 ft | 384 kts | 261° |
| 2026-05-06 16:17 | 42.20140 | -72.05038 | 15966 ft | 383 kts | 261° |
| 2026-05-06 16:17 | 42.19936 | -72.08624 | 15968 ft | 383 kts | 261° |
| 2026-05-06 16:18 | 42.19731 | -72.12214 | 15961 ft | 384 kts | 261° |
| 2026-05-06 16:18 | 42.19527 | -72.15805 | 15964 ft | 384 kts | 261° |
| 2026-05-06 16:18 | 42.19321 | -72.19393 | 15941 ft | 384 kts | 261° |
| 2026-05-06 16:18 | 42.19117 | -72.22938 | 15938 ft | 384 kts | 261° |
| 2026-05-06 16:19 | 42.18909 | -72.26524 | 15955 ft | 384 kts | 261° |
| 2026-05-06 16:19 | 42.18699 | -72.30118 | 15970 ft | 384 kts | 261° |
| 2026-05-06 16:19 | 42.18488 | -72.33713 | 15958 ft | 385 kts | 261° |
| 2026-05-06 16:19 | 42.18276 | -72.37307 | 15956 ft | 384 kts | 261° |
| 2026-05-06 16:20 | 42.18064 | -72.40901 | 15950 ft | 383 kts | 261° |
| 2026-05-06 16:20 | 42.17851 | -72.44479 | 15954 ft | 383 kts | 261° |
| 2026-05-06 16:20 | 42.17636 | -72.48057 | 15952 ft | 382 kts | 261° |
| 2026-05-06 16:20 | 42.17421 | -72.51629 | 15954 ft | 382 kts | 261° |
| 2026-05-06 16:21 | 42.17206 | -72.55191 | 15953 ft | 382 kts | 261° |
| 2026-05-06 16:21 | 42.16989 | -72.58761 | 15952 ft | 382 kts | 261° |
| 2026-05-06 16:21 | 42.16770 | -72.62326 | 15961 ft | 382 kts | 261° |
| 2026-05-06 16:21 | 42.16551 | -72.65894 | 15960 ft | 382 kts | 261° |
| 2026-05-06 16:22 | 42.16331 | -72.69452 | 15962 ft | 381 kts | 261° |
| 2026-05-06 16:22 | 42.16109 | -72.73025 | 15959 ft | 381 kts | 261° |
| 2026-05-06 16:22 | 42.15877 | -72.76589 | 15959 ft | 381 kts | 260° |
| 2026-05-06 16:22 | 42.15637 | -72.80143 | 15961 ft | 381 kts | 260° |
| 2026-05-06 16:23 | 42.15401 | -72.83700 | 15957 ft | 381 kts | 260° |
| 2026-05-06 16:23 | 42.15168 | -72.87255 | 15957 ft | 381 kts | 260° |
| 2026-05-06 16:23 | 42.14935 | -72.90770 | 15959 ft | 381 kts | 260° |
| 2026-05-06 16:23 | 42.14694 | -72.94329 | 15957 ft | 383 kts | 260° |
| 2026-05-06 16:24 | 42.14452 | -72.97909 | 15961 ft | 383 kts | 260° |
| 2026-05-06 16:24 | 42.14213 | -73.01480 | 15957 ft | 382 kts | 260° |
| 2026-05-06 16:24 | 42.13973 | -73.05038 | 15953 ft | 381 kts | 260° |
| 2026-05-06 16:24 | 42.13730 | -73.08585 | 15954 ft | 379 kts | 260° |
| 2026-05-06 16:25 | 42.13487 | -73.12123 | 15949 ft | 379 kts | 260° |
| 2026-05-06 16:25 | 42.13245 | -73.15652 | 15945 ft | 378 kts | 260° |
| 2026-05-06 16:25 | 42.13000 | -73.19174 | 15947 ft | 377 kts | 260° |
| 2026-05-06 16:25 | 42.12756 | -73.22691 | 15947 ft | 377 kts | 260° |
| 2026-05-06 16:26 | 42.12512 | -73.26204 | 15932 ft | 376 kts | 260° |
| 2026-05-06 16:26 | 42.12264 | -73.29714 | 15932 ft | 376 kts | 260° |
| 2026-05-06 16:26 | 42.12017 | -73.33222 | 15943 ft | 377 kts | 260° |
| 2026-05-06 16:26 | 42.11769 | -73.36740 | 15939 ft | 378 kts | 260° |
| 2026-05-06 16:27 | 42.11521 | -73.40263 | 15921 ft | 377 kts | 260° |
| 2026-05-06 16:27 | 42.11269 | -73.43783 | 15921 ft | 377 kts | 260° |
| 2026-05-06 16:27 | 42.11016 | -73.47290 | 15925 ft | 376 kts | 260° |
| 2026-05-06 16:27 | 42.10765 | -73.50804 | 15925 ft | 376 kts | 260° |
| 2026-05-06 16:28 | 42.10508 | -73.54311 | 15909 ft | 377 kts | 260° |
| 2026-05-06 16:28 | 42.10252 | -73.57837 | 15907 ft | 378 kts | 260° |
| 2026-05-06 16:28 | 42.09998 | -73.61362 | 15898 ft | 379 kts | 260° |
| 2026-05-06 16:28 | 42.09746 | -73.64843 | 15899 ft | 379 kts | 260° |
| 2026-05-06 16:29 | 42.09485 | -73.68372 | 15902 ft | 379 kts | 260° |
| 2026-05-06 16:29 | 42.09222 | -73.71907 | 15900 ft | 379 kts | 260° |
| 2026-05-06 16:29 | 42.08962 | -73.75435 | 15897 ft | 378 kts | 259° |
| 2026-05-06 16:29 | 42.08700 | -73.78962 | 15900 ft | 377 kts | 260° |
| 2026-05-06 16:30 | 42.08436 | -73.82479 | 15898 ft | 377 kts | 259° |
| 2026-05-06 16:30 | 42.08261 | -73.84808 | 15899 ft | 377 kts | 259° |
| 2026-05-06 16:30 | 42.07907 | -73.89512 | 15899 ft | 377 kts | 260° |
| 2026-05-06 16:30 | 42.07642 | -73.93024 | 15928 ft | 376 kts | 260° |
| 2026-05-06 16:31 | 42.07376 | -73.96522 | 15940 ft | 376 kts | 259° |
| 2026-05-06 16:31 | 42.07107 | -74.00021 | 15941 ft | 377 kts | 260° |
| 2026-05-06 16:31 | 42.06838 | -74.03535 | 15952 ft | 378 kts | 259° |
| 2026-05-06 16:31 | 42.06568 | -74.07059 | 15957 ft | 379 kts | 259° |
| 2026-05-06 16:32 | 42.06295 | -74.10592 | 15959 ft | 380 kts | 259° |
| 2026-05-06 16:32 | 42.06020 | -74.14137 | 15958 ft | 382 kts | 259° |
| 2026-05-06 16:32 | 42.05741 | -74.17651 | 15958 ft | 381 kts | 259° |
| 2026-05-06 16:32 | 42.05243 | -74.21134 | 15947 ft | 377 kts | 252° |
| 2026-05-06 16:33 | 42.04435 | -74.24472 | 15945 ft | 375 kts | 246° |
| 2026-05-06 16:33 | 42.03332 | -74.27642 | 15945 ft | 374 kts | 240° |
| 2026-05-06 16:33 | 42.01955 | -74.30579 | 15969 ft | 371 kts | 234° |
| 2026-05-06 16:34 | 41.98481 | -74.35694 | 15933 ft | 372 kts | 222° |
| 2026-05-06 16:34 | 41.96416 | -74.37786 | 15958 ft | 373 kts | 216° |
| 2026-05-06 16:34 | 41.94170 | -74.39552 | 15935 ft | 374 kts | 211° |
| 2026-05-06 16:34 | 41.91868 | -74.41200 | 15951 ft | 375 kts | 211° |
| 2026-05-06 16:35 | 41.89568 | -74.42859 | 15965 ft | 375 kts | 211° |
| 2026-05-06 16:35 | 41.87267 | -74.44523 | 15963 ft | 376 kts | 211° |
| 2026-05-06 16:35 | 41.84957 | -74.46183 | 15972 ft | 377 kts | 211° |
| 2026-05-06 16:35 | 41.82628 | -74.47874 | 15971 ft | 387 kts | 211° |
| 2026-05-06 16:36 | 41.80259 | -74.49594 | 15979 ft | 387 kts | 211° |
| 2026-05-06 16:36 | 41.77857 | -74.51194 | 15966 ft | 386 kts | 206° |
| 2026-05-06 16:36 | 41.75361 | -74.52375 | 15880 ft | 381 kts | 200° |
| 2026-05-06 16:36 | 41.72863 | -74.53129 | 15957 ft | 361 kts | 194° |
| 2026-05-06 16:37 | 41.70413 | -74.53580 | 15822 ft | 353 kts | 193° |
| 2026-05-06 16:37 | 41.67963 | -74.54046 | 15284 ft | 358 kts | 193° |
| 2026-05-06 16:37 | 41.65480 | -74.54535 | 14702 ft | 363 kts | 193° |
| 2026-05-06 16:37 | 41.62953 | -74.55031 | 13869 ft | 369 kts | 193° |
| 2026-05-06 16:38 | 41.60424 | -74.55509 | 12887 ft | 366 kts | 192° |
| 2026-05-06 16:38 | 41.57905 | -74.55968 | 11654 ft | 363 kts | 192° |
| 2026-05-06 16:38 | 41.55433 | -74.56428 | 10681 ft | 352 kts | 192° |
| 2026-05-06 16:38 | 41.53055 | -74.56875 | 10039 ft | 337 kts | 192° |
| 2026-05-06 16:39 | 41.50790 | -74.57309 | 9470 ft | 321 kts | 193° |
| 2026-05-06 16:39 | 41.48633 | -74.57716 | 8989 ft | 306 kts | 192° |
| 2026-05-06 16:39 | 41.46573 | -74.58113 | 8579 ft | 293 kts | 193° |
| 2026-05-06 16:39 | 41.44588 | -74.58483 | 8149 ft | 284 kts | 192° |
| 2026-05-06 16:40 | 41.42651 | -74.58836 | 7744 ft | 277 kts | 193° |
| 2026-05-06 16:40 | 41.40776 | -74.59224 | 7379 ft | 266 kts | 196° |
| 2026-05-06 16:40 | 41.39039 | -74.59881 | 7008 ft | 253 kts | 200° |
| 2026-05-06 16:40 | 41.37399 | -74.60512 | 6821 ft | 235 kts | 200° |
| 2026-05-06 16:41 | 41.35902 | -74.61079 | 6839 ft | 220 kts | 200° |
| 2026-05-06 16:41 | 41.34453 | -74.61638 | 6694 ft | 214 kts | 200° |
| 2026-05-06 16:41 | 41.33036 | -74.62178 | 6501 ft | 210 kts | 199° |
| 2026-05-06 16:41 | 41.31639 | -74.62697 | 6337 ft | 206 kts | 200° |
| 2026-05-06 16:42 | 41.30272 | -74.63215 | 6153 ft | 203 kts | 200° |
| 2026-05-06 16:42 | 41.28928 | -74.63737 | 5999 ft | 198 kts | 200° |
| 2026-05-06 16:42 | 41.27645 | -74.64245 | 6004 ft | 188 kts | 201° |
| 2026-05-06 16:42 | 41.26422 | -74.64742 | 6004 ft | 180 kts | 201° |
| 2026-05-06 16:43 | 41.25232 | -74.65244 | 6005 ft | 180 kts | 202° |
| 2026-05-06 16:43 | 41.24040 | -74.65766 | 5997 ft | 181 kts | 202° |
| 2026-05-06 16:43 | 41.22855 | -74.66304 | 6017 ft | 180 kts | 203° |